cover

 

Get it on iTunes StoreListen on Apple Music

Allen Watts

#Trackname / Key / BPM / Publish dateArtists, Remixers / Label
1 138 bpm, 8A / A minor, 2018-09-21, Trance,  0  30
2 138 bpm, 4A / F minor, 2018-09-21, Trance,  0  32
3 138 bpm, 2A / Eb minor, 2018-09-14, Trance,  1  4
4 138 bpm, 6B / Bb major, 2018-08-31, Trance,  0  100
5 140 bpm, 7B / F major, 2018-08-27, Trance,  11  1
6 138 bpm, 9A / E minor, 2018-08-10, Trance,  1  43
7 138 bpm, 6A / G minor, 2018-08-10, Trance,  0  43
8 138 bpm, 9A / E minor, 2018-08-10, Trance,  6  1
9 138 bpm, 2A / Eb minor, 2018-07-27, Trance,  3  1
10 140 bpm, 6A / G minor, 2018-07-02, Trance,  3  14
11 138 bpm, 2B / F# major, 2018-07-02, Trance,  0  14
12 138 bpm, 7A / D minor, 2018-07-02, Trance,  0  14
13 138 bpm, 6B / Bb major, 2018-06-15, Trance,  17  1
14 138 bpm, 2B / F# major, 2018-06-11, Trance,  0  13
15 138 bpm, 7A / D minor, 2018-06-11, Trance,  0  13
16 140 bpm, 6A / G minor, 2018-06-08, Trance,  4  1
17 138 bpm, 3A / Bb minor, 2018-05-14, Trance,  2  2
18 138 bpm, 3A / Bb minor, 2018-05-14, Trance,  0  2
19 138 bpm, 9A / E minor, 2018-05-04, Trance,  0  7
20 138 bpm, 6A / G minor, 2018-04-27, Trance,  1  44
21 138 bpm, 6A / G minor, 2018-04-20, Trance,  25  1
22 138 bpm, 4A / F minor, 2018-04-13, Trance,  0  11
23 138 bpm, 4A / F minor, 2018-03-30, Trance,  1  36
24 138 bpm, 4A / F minor, 2018-03-30, Trance,  2  30
25 138 bpm, 10B / D major, 2018-03-09, Trance,  15  1
26 138 bpm, 12A / Db minor, 2018-03-02, Trance,  1  78
27 138 bpm, 4A / F minor, 2018-03-02, Trance,  0  78
28 138 bpm, 6A / G minor, 2018-02-23, Trance,  15  3
29 138 bpm, 9A / E minor, 2018-02-16, Trance,  0  40
30 138 bpm, 6A / G minor, 2018-02-16, Trance,  0  25
31 138 bpm, 5B / Eb major, 2018-02-16, Dance,  0  40
32 138 bpm, 2B / F# major, 2018-02-02, Trance,  1  100
33 138 bpm, 6A / G minor, 2018-02-02, Trance,  0  100
34 138 bpm, 2B / F# major, 2018-01-22, Trance,  11  1
35 138 bpm, 4A / F minor, 2018-01-15, Trance,  16  1
36 140 bpm, 6B / Bb major, 2017-12-18, Trance,  0  16
37 138 bpm, 5B / Eb major, 2017-12-15, Trance,  0  26
38 138 bpm, 2B / F# major, 2017-12-15, Trance,  0  109
39 138 bpm, 2A / Eb minor, 2017-12-15, Trance,  9  1
40 138 bpm, 6A / G minor, 2017-12-15, Trance,  5  1
41 138 bpm, 10A / B minor, 2017-12-11, Trance,  0  51
42 138 bpm, 8B / C major, 2017-12-08, Trance,  24  2
43 138 bpm, 6A / G minor, 2017-11-24, Trance,  9  1
44 138 bpm, 10A / B minor, 2017-11-10, Trance,  0  33
45 138 bpm, 4A / F minor, 2017-11-10, Trance,  0  33
46 138 bpm, 4B / Ab major, 2017-11-03, Trance,  0  40
47 138 bpm, 5B / Eb major, 2017-10-30, Trance,  24  1
48 138 bpm, 4B / Ab major, 2017-10-27, Trance,  1  25
49 138 bpm, 2A / Eb minor, 2017-10-20, Trance,  0  10
50 140 bpm, 6A / G minor, 2017-09-04, Trance,  2  8
51 138 bpm, 7A / D minor, 2017-08-25, Trance,  0  35
52 140 bpm, 6B / Bb major, 2017-08-21, Trance,  0  15
53 138 bpm, 9A / E minor, 2017-08-18, Trance,  2  15
54 140 bpm, 6B / Bb major, 2017-08-18, Trance,  1  15
55 138 bpm, 2A / Eb minor, 2017-08-18, Trance,  0  20
56 138 bpm, 2A / Eb minor, 2017-08-04, Trance,  1  35
57 138 bpm, 7A / D minor, 2017-07-17, Trance,  10  1
58 138 bpm, 9A / E minor, 2017-07-10, Trance,  3  2
59 138 bpm, 9A / E minor, 2017-07-10, Trance,  8  2
60 138 bpm, 4B / Ab major, 2017-07-07, Trance,  0  20
61 140 bpm, 6B / Bb major, 2017-07-07, Trance,  2  2
62 140 bpm, 6B / Bb major, 2017-07-07, Trance,  0  2
63 138 bpm, 2A / Eb minor, 2017-07-07, Trance,  0  18
64 138 bpm, 2B / F# major, 2017-06-30, Trance,  0  100
65 140 bpm, 6A / G minor, 2017-06-30, Trance,  0  100
66 138 bpm, 2A / Eb minor, 2017-06-23, Trance,  3  15
67 138 bpm, 2A / Eb minor, 2017-06-23, Trance,  4  1
68 138 bpm, 2B / F# major, 2017-06-09, Trance,  0  20
69 138 bpm, 4B / Ab major, 2017-06-02, Trance,  0  40
70 138 bpm, 2A / Eb minor, 2017-05-12, Trance,  24  1
71 138 bpm, 7A / D minor, 2017-04-28, Trance,  1  25
72 138 bpm, 10B / D major, 2017-04-28, Trance,  0  15
73 140 bpm, 6A / G minor, 2017-04-28, Trance,  1  15
74 138 bpm, 2B / F# major, 2017-04-21, Trance,  1  40
75 138 bpm, 4B / Ab major, 2017-04-14, Trance,  1  20
76 138 bpm, 4B / Ab major, 2017-04-14, Trance,  0  40
77 138 bpm, 4B / Ab major, 2017-04-07, Trance,  2  25
78 138 bpm, 7A / D minor, 2017-03-17, Trance,  4  1
79 140 bpm, 6A / G minor, 2017-03-03, Trance,  23  1
80 140 bpm, 3A / Bb minor, 2017-03-03, Trance,  0  20
81 138 bpm, 4A / F minor, 2017-02-20, Trance,  0  25
82 138 bpm, 10B / D major, 2017-02-14, Trance,  2  5
83 138 bpm, 4B / Ab major, 2017-01-30, Trance,  20  1
84 138 bpm, 7B / F major, 2017-01-20, Trance,  0  15
85 138 bpm, 4A / F minor, 2017-01-13, Trance,  1  20
86 140 bpm, 3A / Bb minor, 2017-01-09, Trance,  15  1
87 138 bpm, 1A / Ab minor, 2017-01-02, Trance,  0  23
88 138 bpm, 6A / G minor, 2016-12-30, Trance,  0  17
89 138 bpm, 2B / F# major, 2016-12-16, Trance,  0  105
90 138 bpm, 2B / F# major, 2016-12-16, Trance,  0  105
91 140 bpm, 4A / F minor, 2016-12-12, Trance,  1  51
92 138 bpm, 2B / F# major, 2016-12-09, Trance,  1  10
93 138 bpm, 2B / F# major, 2016-12-02, Trance,  0  39
94 138 bpm, 4A / F minor, 2016-12-02, Trance,  0  40
95 138 bpm, 1A / Ab minor, 2016-11-28, Trance,  2  2
96 138 bpm, 6A / G minor, 2016-11-28, Trance,  5  1
97 138 bpm, 7B / F major, 2016-11-21, Trance,  13  1
98 138 bpm, 2B / F# major, 2016-11-04, Trance,  0  40
99 138 bpm, 2B / F# major, 2016-11-04, Trance,  0  100
100 140 bpm, 8A / A minor, 2016-11-04, Trance,  0  100
×

Sign in

Sign in to access your personalized pages, follow artists and labels you love, and create playlists fromyour favorite tracks.

Please wait...